Time;durP1;ratioP1;P1;durP2;ratioP2;P2;SDS_P1;SDS_P2;PMS_P1;PMS_P2;Temp;Humidity;BMP_temperature;BMP_pressure;BME280_temperature;BME280_humidity;BME280_pressure;Samples;Min_cycle;Max_cycle;Signal;HPM_P1;HPM_P2
2022/10/19 00:02:17;0.00;0.00;0.62;0.00;0.00;0.62;2.33;1.07;;;30.20;28.30;;;;;;2265945;61;20349;-66
2022/10/19 00:05:01;0.00;0.00;0.62;0.00;0.00;0.62;1.83;0.83;;;30.20;28.30;;;;;;2265690;61;20412;-68
2022/10/19 00:07:46;0.00;0.00;0.62;0.00;0.00;0.62;2.30;0.90;;;30.20;28.30;;;;;;2264815;61;20435;-67
2022/10/19 00:10:31;0.00;0.00;0.62;0.00;0.00;0.62;2.77;1.40;;;30.20;28.30;;;;;;2265584;61;20396;-67
2022/10/19 00:13:17;0.00;0.00;0.62;0.00;0.00;0.62;2.70;1.13;;;30.10;28.10;;;;;;2265233;61;20381;-67
2022/10/19 00:16:07;0.00;0.00;0.62;0.00;0.00;0.62;2.77;1.70;;;30.10;28.10;;;;;;2265450;61;20357;-67
2022/10/19 00:18:55;0.00;0.00;0.62;0.00;0.00;0.62;2.13;1.10;;;30.10;28.00;;;;;;2265384;61;20400;-68
2022/10/19 00:21:40;0.00;0.00;0.62;0.00;0.00;0.62;1.67;1.10;;;30.00;28.00;;;;;;2264756;61;20385;-67
2022/10/19 00:24:25;0.00;0.00;0.62;0.00;0.00;0.62;2.80;1.53;;;30.00;28.50;;;;;;2265698;61;20381;-67
2022/10/19 00:27:10;0.00;0.00;0.62;0.00;0.00;0.62;2.30;1.10;;;30.00;28.00;;;;;;2265435;61;20805;-67
2022/10/19 00:29:56;0.00;0.00;0.62;0.00;0.00;0.62;3.03;1.50;;;30.00;28.00;;;;;;2264129;61;20404;-68
2022/10/19 00:32:40;0.00;0.00;0.62;0.00;0.00;0.62;3.70;1.30;;;29.90;27.80;;;;;;2265454;61;20360;-67
2022/10/19 00:35:25;0.00;0.00;0.62;0.00;0.00;0.62;3.33;1.20;;;29.90;27.80;;;;;;2264951;61;20424;-68
2022/10/19 00:38:10;0.00;0.00;0.62;0.00;0.00;0.62;2.70;1.37;;;29.80;28.30;;;;;;2265672;61;20399;-69
2022/10/19 00:40:55;0.00;0.00;0.62;0.00;0.00;0.62;1.50;1.07;;;29.80;27.70;;;;;;2265452;61;20656;-67
2022/10/19 00:43:52;0.00;0.00;0.62;0.00;0.00;0.62;2.63;1.20;;;29.70;27.60;;;;;;2264553;61;20353;-68
2022/10/19 00:46:41;0.00;0.00;0.62;0.00;0.00;0.62;2.67;1.30;;;29.70;27.70;;;;;;2265799;61;20368;-67
2022/10/19 00:49:30;0.00;0.00;0.62;0.00;0.00;0.62;2.50;1.60;;;29.70;27.60;;;;;;2265504;61;20353;-68
2022/10/19 00:52:21;0.00;0.00;0.62;0.00;0.00;0.62;2.80;1.23;;;29.70;27.60;;;;;;2265043;61;20371;-67
2022/10/19 00:55:07;0.00;0.00;0.62;0.00;0.00;0.62;3.90;1.60;;;29.60;27.60;;;;;;2264843;61;20586;-68
2022/10/19 00:57:53;0.00;0.00;0.62;0.00;0.00;0.62;2.60;1.10;;;29.60;27.60;;;;;;2264922;61;20728;-67
2022/10/19 01:00:38;0.00;0.00;0.62;0.00;0.00;0.62;2.27;1.10;;;29.60;27.50;;;;;;2265368;61;20664;-67
2022/10/19 01:03:24;0.00;0.00;0.62;0.00;0.00;0.62;2.90;1.37;;;29.60;27.50;;;;;;2265204;61;20471;-66
2022/10/19 01:06:12;0.00;0.00;0.62;0.00;0.00;0.62;2.17;1.30;;;29.50;27.40;;;;;;2264769;61;20771;-68
2022/10/19 01:08:57;0.00;0.00;0.62;0.00;0.00;0.62;4.10;1.33;;;29.50;27.40;;;;;;2265568;61;20553;-66
2022/10/19 01:11:57;0.00;0.00;0.62;0.00;0.00;0.62;3.17;1.43;;;29.50;27.40;;;;;;2265485;61;20357;-68
2022/10/19 01:14:57;0.00;0.00;0.62;0.00;0.00;0.62;2.03;1.17;;;29.40;27.40;;;;;;2264997;61;20415;-66
2022/10/19 01:17:56;0.00;0.00;0.62;0.00;0.00;0.62;2.73;1.77;;;29.40;27.40;;;;;;2265223;61;20383;-66
2022/10/19 01:21:19;0.00;0.00;0.62;0.00;0.00;0.62;2.50;1.50;;;29.40;27.40;;;;;;2264725;61;20863;-66
2022/10/19 01:24:40;0.00;0.00;0.62;0.00;0.00;0.62;3.50;1.30;;;29.30;27.30;;;;;;2265309;61;20749;-67
2022/10/19 01:27:42;0.00;0.00;0.62;0.00;0.00;0.62;1.93;0.90;;;29.30;27.30;;;;;;2264988;61;20658;-67
2022/10/19 01:30:41;0.00;0.00;0.62;0.00;0.00;0.62;2.73;1.47;;;29.30;27.30;;;;;;2265362;61;20364;-68
2022/10/19 01:33:41;0.00;0.00;0.62;0.00;0.00;0.62;1.67;1.00;;;29.20;27.30;;;;;;2265325;61;20419;-68
2022/10/19 01:36:36;0.00;0.00;0.62;0.00;0.00;0.62;2.03;1.03;;;29.20;27.20;;;;;;2264629;61;20373;-66
2022/10/19 01:39:32;0.00;0.00;0.62;0.00;0.00;0.62;4.10;1.70;;;29.10;27.20;;;;;;2265302;61;20602;-67
2022/10/19 01:42:25;0.00;0.00;0.62;0.00;0.00;0.62;1.80;1.20;;;29.10;27.20;;;;;;2265135;61;20400;-68
2022/10/19 01:45:14;0.00;0.00;0.62;0.00;0.00;0.62;2.27;1.10;;;29.10;27.20;;;;;;2265845;61;20380;-67
2022/10/19 01:48:05;0.00;0.00;0.62;0.00;0.00;0.62;2.53;1.30;;;29.10;27.20;;;;;;2266106;61;20345;-67
2022/10/19 01:50:54;0.00;0.00;0.62;0.00;0.00;0.62;4.70;1.50;;;29.10;27.20;;;;;;2265207;61;20633;-66
2022/10/19 01:53:45;0.00;0.00;0.62;0.00;0.00;0.62;4.83;1.47;;;29.00;27.10;;;;;;2266033;61;20353;-68
2022/10/19 01:56:32;0.00;0.00;0.62;0.00;0.00;0.62;2.90;1.27;;;29.00;27.20;;;;;;2266018;61;20369;-66
2022/10/19 01:59:20;0.00;0.00;0.62;0.00;0.00;0.62;3.30;1.63;;;29.00;27.10;;;;;;2265518;61;20427;-68
2022/10/19 02:02:06;0.00;0.00;0.62;0.00;0.00;0.62;2.07;1.23;;;29.00;27.20;;;;;;2266008;61;20741;-68
2022/10/19 02:04:54;0.00;0.00;0.62;0.00;0.00;0.62;2.37;1.27;;;28.90;27.10;;;;;;2265400;61;20388;-67
2022/10/19 02:07:45;0.00;0.00;0.62;0.00;0.00;0.62;2.23;1.33;;;28.90;27.10;;;;;;2266102;61;20366;-68
2022/10/19 02:10:31;0.00;0.00;0.62;0.00;0.00;0.62;4.07;1.50;;;28.90;27.10;;;;;;2266120;61;20422;-69
2022/10/19 02:13:17;0.00;0.00;0.62;0.00;0.00;0.62;3.60;1.50;;;28.90;27.00;;;;;;2264896;61;20360;-66
2022/10/19 02:16:10;0.00;0.00;0.62;0.00;0.00;0.62;4.07;1.60;;;28.90;27.00;;;;;;2265869;61;20407;-67
2022/10/19 02:18:57;0.00;0.00;0.62;0.00;0.00;0.62;3.37;1.60;;;28.90;27.00;;;;;;2265655;61;20381;-67
2022/10/19 02:21:43;0.00;0.00;0.62;0.00;0.00;0.62;2.07;1.10;;;28.90;27.00;;;;;;2265864;61;20357;-68
2022/10/19 02:24:27;0.00;0.00;0.62;0.00;0.00;0.62;2.80;1.40;;;28.80;27.00;;;;;;2265946;61;20418;-67
2022/10/19 02:27:13;0.00;0.00;0.62;0.00;0.00;0.62;3.20;1.40;;;28.80;27.00;;;;;;2265032;61;20353;-66
2022/10/19 02:29:57;0.00;0.00;0.62;0.00;0.00;0.62;2.53;1.40;;;28.80;27.00;;;;;;2266068;61;20587;-68
2022/10/19 02:32:43;0.00;0.00;0.62;0.00;0.00;0.62;2.80;1.67;;;28.70;26.90;;;;;;2497867;53;20382;-68
2022/10/19 02:35:28;0.00;0.00;0.62;0.00;0.00;0.62;2.40;1.47;;;28.70;26.90;;;;;;2263588;61;20388;-67
2022/10/19 02:38:20;0.00;0.00;0.62;0.00;0.00;0.62;4.00;1.87;;;28.70;26.90;;;;;;2266118;61;20387;-67
2022/10/19 02:41:14;0.00;0.00;0.62;0.00;0.00;0.62;2.77;1.23;;;28.70;27.00;;;;;;2265499;61;20357;-67
2022/10/19 02:44:04;0.00;0.00;0.62;0.00;0.00;0.62;3.50;1.30;;;28.60;27.50;;;;;;2265778;61;20372;-68
2022/10/19 02:46:53;0.00;0.00;0.62;0.00;0.00;0.62;2.37;1.27;;;28.60;26.90;;;;;;2265795;61;20381;-68
2022/10/19 02:49:38;0.00;0.00;0.62;0.00;0.00;0.62;2.50;1.30;;;28.60;27.00;;;;;;2264606;61;20349;-68
2022/10/19 02:52:23;0.00;0.00;0.62;0.00;0.00;0.62;2.80;1.17;;;28.60;27.50;;;;;;2266143;61;20464;-67
2022/10/19 02:55:09;0.00;0.00;0.62;0.00;0.00;0.62;1.70;1.00;;;28.60;26.90;;;;;;2265445;61;20373;-68
2022/10/19 02:57:54;0.00;0.00;0.62;0.00;0.00;0.62;2.53;1.20;;;28.50;26.90;;;;;;2265095;61;20484;-67
2022/10/19 03:00:39;0.00;0.00;0.62;0.00;0.00;0.62;1.60;1.20;;;28.50;26.90;;;;;;2265818;61;20396;-67
2022/10/19 03:03:23;0.00;0.00;0.62;0.00;0.00;0.62;2.17;1.10;;;28.50;26.80;;;;;;2265204;61;20393;-66
2022/10/19 03:06:08;0.00;0.00;0.62;0.00;0.00;0.62;2.57;1.40;;;28.50;26.80;;;;;;2265810;61;20433;-66
2022/10/19 03:08:53;0.00;0.00;0.62;0.00;0.00;0.62;2.90;1.70;;;28.40;26.80;;;;;;2265761;61;20357;-68
2022/10/19 03:11:39;0.00;0.00;0.62;0.00;0.00;0.62;2.47;1.13;;;28.40;27.40;;;;;;2265251;61;20408;-68
2022/10/19 03:14:24;0.00;0.00;0.62;0.00;0.00;0.62;3.90;1.30;;;28.40;26.80;;;;;;2265812;61;20380;-68
2022/10/19 03:17:09;0.00;0.00;0.62;0.00;0.00;0.62;2.40;1.20;;;28.40;26.80;;;;;;2265437;61;20357;-66
2022/10/19 03:19:54;0.00;0.00;0.62;0.00;0.00;0.62;1.93;1.10;;;28.40;26.80;;;;;;2265117;61;20373;-68
2022/10/19 03:22:38;0.00;0.00;0.62;0.00;0.00;0.62;3.87;1.50;;;28.40;26.80;;;;;;2265697;61;20380;-67
2022/10/19 03:25:23;0.00;0.00;0.62;0.00;0.00;0.62;1.50;0.90;;;28.40;26.90;;;;;;2265460;61;20377;-67
2022/10/19 03:28:11;0.00;0.00;0.62;0.00;0.00;0.62;2.00;1.23;;;28.40;26.90;;;;;;2265642;61;20353;-67
2022/10/19 03:30:55;0.00;0.00;0.62;0.00;0.00;0.62;3.03;1.40;;;28.30;26.80;;;;;;2265450;61;20593;-67
2022/10/19 03:33:40;0.00;0.00;0.62;0.00;0.00;0.62;2.10;1.20;;;28.30;26.80;;;;;;2265211;61;20380;-66
2022/10/19 03:36:28;0.00;0.00;0.62;0.00;0.00;0.62;1.57;1.10;;;28.30;26.80;;;;;;2265868;61;20404;-67
2022/10/19 03:39:15;0.00;0.00;0.62;0.00;0.00;0.62;3.40;1.37;;;28.30;26.80;;;;;;2265547;61;20380;-67
2022/10/19 03:42:00;0.00;0.00;0.62;0.00;0.00;0.62;2.57;1.30;;;28.30;26.80;;;;;;2264943;61;20399;-68
2022/10/19 03:44:46;0.00;0.00;0.62;0.00;0.00;0.62;6.77;1.90;;;28.30;26.80;;;;;;2265726;61;20420;-66
2022/10/19 03:47:30;0.00;0.00;0.62;0.00;0.00;0.62;2.40;1.20;;;28.20;26.80;;;;;;2265749;61;20361;-67
2022/10/19 03:50:16;0.00;0.00;0.62;0.00;0.00;0.62;1.90;1.27;;;28.20;26.80;;;;;;2265396;61;20408;-67
2022/10/19 03:53:00;0.00;0.00;0.62;0.00;0.00;0.62;1.67;1.20;;;28.20;26.80;;;;;;2265388;61;20365;-68
2022/10/19 03:55:44;0.00;0.00;0.62;0.00;0.00;0.62;1.60;1.07;;;28.20;26.80;;;;;;2265223;61;20446;-66
2022/10/19 03:58:31;0.00;0.00;0.62;0.00;0.00;0.62;1.77;1.00;;;28.20;26.80;;;;;;2265722;61;20365;-67
2022/10/19 04:01:20;0.00;0.00;0.62;0.00;0.00;0.62;1.80;1.23;;;28.20;26.80;;;;;;2265699;61;20357;-66
2022/10/19 04:04:09;0.00;0.00;0.62;0.00;0.00;0.62;2.57;1.20;;;28.10;26.70;;;;;;2264726;61;20753;-68
2022/10/19 04:06:54;0.00;0.00;0.62;0.00;0.00;0.62;2.30;1.27;;;28.10;26.70;;;;;;2265604;61;20376;-68
2022/10/19 04:09:39;0.00;0.00;0.62;0.00;0.00;0.62;3.93;1.80;;;28.10;26.70;;;;;;2265856;61;20393;-68
2022/10/19 04:12:24;0.00;0.00;0.62;0.00;0.00;0.62;1.57;0.90;;;28.10;26.70;;;;;;2265154;61;20400;-66
2022/10/19 04:15:09;0.00;0.00;0.62;0.00;0.00;0.62;2.00;1.30;;;28.10;26.70;;;;;;2265483;61;20381;-68
2022/10/19 04:17:55;0.00;0.00;0.62;0.00;0.00;0.62;2.27;1.17;;;28.10;26.70;;;;;;2265036;61;20353;-66
2022/10/19 04:20:41;0.00;0.00;0.62;0.00;0.00;0.62;4.40;1.40;;;28.10;26.70;;;;;;2265598;61;20389;-68
2022/10/19 04:23:27;0.00;0.00;0.62;0.00;0.00;0.62;3.67;1.70;;;28.10;26.80;;;;;;2265475;61;20624;-68
2022/10/19 04:26:12;0.00;0.00;0.62;0.00;0.00;0.62;2.70;1.30;;;28.00;26.70;;;;;;2264732;61;20392;-67
2022/10/19 04:28:57;0.00;0.00;0.62;0.00;0.00;0.62;2.13;1.07;;;28.00;26.70;;;;;;2265676;61;20372;-68
2022/10/19 04:31:42;0.00;0.00;0.62;0.00;0.00;0.62;2.23;1.33;;;28.00;26.70;;;;;;2265817;61;20585;-68
2022/10/19 04:34:28;0.00;0.00;0.62;0.00;0.00;0.62;2.90;1.10;;;28.00;26.70;;;;;;2265008;61;20377;-67
2022/10/19 04:37:12;0.00;0.00;0.62;0.00;0.00;0.62;2.83;1.27;;;28.00;26.80;;;;;;2265380;61;20745;-68
2022/10/19 04:39:57;0.00;0.00;0.62;0.00;0.00;0.62;2.07;1.40;;;28.00;26.70;;;;;;2264986;61;20439;-68
2022/10/19 04:42:41;0.00;0.00;0.62;0.00;0.00;0.62;4.77;1.63;;;27.90;26.70;;;;;;2265302;61;20397;-69
2022/10/19 04:45:26;0.00;0.00;0.62;0.00;0.00;0.62;3.30;1.10;;;27.90;26.70;;;;;;2265368;61;20552;-66
2022/10/19 04:48:11;0.00;0.00;0.62;0.00;0.00;0.62;2.40;1.30;;;27.90;26.70;;;;;;2264162;61;20364;-67
2022/10/19 04:50:57;0.00;0.00;0.62;0.00;0.00;0.62;1.90;1.20;;;27.90;26.70;;;;;;2265772;61;20349;-67
2022/10/19 04:53:43;0.00;0.00;0.62;0.00;0.00;0.62;2.03;1.30;;;27.90;26.70;;;;;;2265185;61;20357;-66
2022/10/19 04:56:28;0.00;0.00;0.62;0.00;0.00;0.62;1.77;1.13;;;27.90;26.70;;;;;;2264807;61;20400;-68
2022/10/19 04:59:12;0.00;0.00;0.62;0.00;0.00;0.62;2.23;1.10;;;27.80;26.70;;;;;;2265443;61;20428;-66
2022/10/19 05:01:57;0.00;0.00;0.62;0.00;0.00;0.62;1.73;1.00;;;27.80;26.60;;;;;;2264859;61;20623;-65
2022/10/19 05:04:43;0.00;0.00;0.62;0.00;0.00;0.62;5.60;1.30;;;27.80;26.70;;;;;;2264925;61;20428;-67
2022/10/19 05:07:29;0.00;0.00;0.62;0.00;0.00;0.62;1.67;1.07;;;27.80;26.70;;;;;;2265346;61;20392;-65
2022/10/19 05:10:14;0.00;0.00;0.62;0.00;0.00;0.62;1.80;1.17;;;27.80;26.70;;;;;;2264688;61;20452;-67
2022/10/19 05:13:01;0.00;0.00;0.62;0.00;0.00;0.62;2.90;1.27;;;27.70;26.60;;;;;;2265570;61;20386;-67
2022/10/19 05:15:55;0.00;0.00;0.62;0.00;0.00;0.62;2.27;1.13;;;27.70;26.60;;;;;;2265204;61;20392;-69
2022/10/19 05:18:40;0.00;0.00;0.62;0.00;0.00;0.62;2.17;1.40;;;27.70;26.70;;;;;;2264703;61;20403;-70
2022/10/19 05:21:27;0.00;0.00;0.62;0.00;0.00;0.62;2.23;1.10;;;27.70;26.70;;;;;;2265621;61;20598;-65
2022/10/19 05:24:13;0.00;0.00;0.62;0.00;0.00;0.62;2.03;1.10;;;27.70;26.70;;;;;;2264688;61;20377;-68
2022/10/19 05:26:57;0.00;0.00;0.62;0.00;0.00;0.62;2.37;1.30;;;27.70;26.70;;;;;;2265004;61;20372;-69
2022/10/19 05:29:42;0.00;0.00;0.62;0.00;0.00;0.62;1.90;1.20;;;27.70;26.70;;;;;;2264365;61;20725;-67
2022/10/19 05:32:27;0.00;0.00;0.62;0.00;0.00;0.62;3.00;1.20;;;27.70;26.70;;;;;;2264836;61;20364;-67
2022/10/19 05:35:12;0.00;0.00;0.62;0.00;0.00;0.62;2.63;1.17;;;27.60;26.70;;;;;;2265601;61;20427;-68
2022/10/19 05:37:57;0.00;0.00;0.62;0.00;0.00;0.62;2.80;1.47;;;27.60;26.70;;;;;;2265036;61;20411;-67
2022/10/19 05:40:45;0.00;0.00;0.62;0.00;0.00;0.62;2.20;1.23;;;27.60;26.70;;;;;;2265208;61;20381;-67
2022/10/19 05:43:30;0.00;0.00;0.62;0.00;0.00;0.62;3.30;2.00;;;27.60;26.70;;;;;;2265119;61;20365;-64
2022/10/19 05:46:18;0.00;0.00;0.62;0.00;0.00;0.62;2.67;1.53;;;27.60;26.70;;;;;;2265220;61;20395;-64
2022/10/19 05:49:03;0.00;0.00;0.62;0.00;0.00;0.62;3.07;1.50;;;27.60;26.70;;;;;;2497647;53;20369;-65
2022/10/19 05:51:49;0.00;0.00;0.62;0.00;0.00;0.62;2.50;1.60;;;27.60;26.70;;;;;;2261373;61;20354;-67
2022/10/19 05:54:34;0.00;0.00;0.62;0.00;0.00;0.62;2.70;1.87;;;27.60;26.70;;;;;;2260756;61;20596;-67
2022/10/19 05:57:21;0.00;0.00;0.62;0.00;0.00;0.62;3.63;2.20;;;27.50;26.70;;;;;;2261522;61;20353;-70
2022/10/19 06:00:07;0.00;0.00;0.62;0.00;0.00;0.62;2.77;1.80;;;27.50;26.70;;;;;;2261265;61;20382;-66
2022/10/19 06:02:56;0.00;0.00;0.62;0.00;0.00;0.62;3.50;1.80;;;27.50;26.80;;;;;;2260948;61;20576;-65
2022/10/19 06:05:41;0.00;0.00;0.62;0.00;0.00;0.62;2.20;1.40;;;27.50;26.80;;;;;;2260803;61;20384;-68
2022/10/19 06:08:25;0.00;0.00;0.62;0.00;0.00;0.62;2.50;1.77;;;27.50;26.80;;;;;;2261156;61;20666;-68
2022/10/19 06:11:13;0.00;0.00;0.62;0.00;0.00;0.62;3.80;1.67;;;27.50;26.80;;;;;;2261146;61;20357;-71
2022/10/19 06:14:02;0.00;0.00;0.62;0.00;0.00;0.62;4.10;1.93;;;27.50;26.80;;;;;;2260990;61;20392;-73
2022/10/19 06:16:47;0.00;0.00;0.62;0.00;0.00;0.62;3.00;1.80;;;27.50;26.80;;;;;;2260913;61;20382;-62
2022/10/19 06:19:32;0.00;0.00;0.62;0.00;0.00;0.62;3.20;1.33;;;27.50;26.80;;;;;;2261309;61;20394;-71
2022/10/19 06:22:17;0.00;0.00;0.62;0.00;0.00;0.62;4.00;2.27;;;27.50;26.80;;;;;;2261382;61;20426;-64
2022/10/19 06:25:02;0.00;0.00;0.62;0.00;0.00;0.62;5.13;1.43;;;27.50;26.80;;;;;;2261026;61;20373;-66
2022/10/19 06:27:47;0.00;0.00;0.62;0.00;0.00;0.62;4.33;1.93;;;27.50;26.80;;;;;;2261456;61;20722;-64
2022/10/19 06:30:33;0.00;0.00;0.62;0.00;0.00;0.62;5.20;2.00;;;27.50;26.80;;;;;;2262445;61;20457;-70
2022/10/19 06:33:18;0.00;0.00;0.62;0.00;0.00;0.62;3.40;1.40;;;27.50;26.80;;;;;;2265850;61;20362;-68
2022/10/19 06:36:06;0.00;0.00;0.62;0.00;0.00;0.62;3.03;1.50;;;27.50;26.80;;;;;;2265976;61;20404;-69
2022/10/19 06:38:52;0.00;0.00;0.62;0.00;0.00;0.62;2.70;2.00;;;27.50;26.80;;;;;;2265584;61;20433;-68
2022/10/19 06:41:36;0.00;0.00;0.62;0.00;0.00;0.62;2.20;1.50;;;27.50;26.90;;;;;;2266276;61;20358;-71
2022/10/19 06:44:50;0.00;0.00;0.62;0.00;0.00;0.62;3.73;1.60;;;27.50;26.90;;;;;;2265773;61;20393;-67
2022/10/19 06:47:36;0.00;0.00;0.62;0.00;0.00;0.62;2.67;1.67;;;27.50;26.90;;;;;;2265522;61;20441;-68
2022/10/19 06:50:22;0.00;0.00;0.62;0.00;0.00;0.62;2.77;1.57;;;27.50;26.90;;;;;;2265919;61;20361;-70
2022/10/19 06:53:07;0.00;0.00;0.62;0.00;0.00;0.62;3.43;1.80;;;27.50;26.90;;;;;;2265702;61;20437;-70
2022/10/19 06:55:51;0.00;0.00;0.62;0.00;0.00;0.62;2.80;1.37;;;27.50;26.90;;;;;;2265839;61;20388;-71
2022/10/19 06:58:36;0.00;0.00;0.62;0.00;0.00;0.62;3.57;1.67;;;27.50;26.90;;;;;;2265992;61;20357;-64
2022/10/19 07:01:22;0.00;0.00;0.62;0.00;0.00;0.62;2.80;1.33;;;27.50;26.90;;;;;;2265509;61;20727;-69
2022/10/19 07:04:08;0.00;0.00;0.62;0.00;0.00;0.62;2.50;1.70;;;27.50;26.90;;;;;;2266104;61;20734;-69
2022/10/19 07:06:53;0.00;0.00;0.62;0.00;0.00;0.62;3.23;1.70;;;27.50;27.00;;;;;;2265662;61;20744;-70
2022/10/19 07:09:37;0.00;0.00;0.62;0.00;0.00;0.62;3.70;1.70;;;27.50;27.00;;;;;;2265613;61;20349;-73
2022/10/19 07:12:22;0.00;0.00;0.62;0.00;0.00;0.62;2.90;1.40;;;27.50;27.00;;;;;;2266083;61;20364;-67
2022/10/19 07:15:08;0.00;0.00;0.62;0.00;0.00;0.62;2.70;1.70;;;27.50;27.00;;;;;;2265614;61;20463;-68
2022/10/19 07:17:53;0.00;0.00;0.62;0.00;0.00;0.62;2.40;1.30;;;27.50;27.00;;;;;;2265949;61;20377;-67
2022/10/19 07:20:39;0.00;0.00;0.62;0.00;0.00;0.62;2.70;1.40;;;27.50;27.00;;;;;;2265847;61;20603;-67
2022/10/19 07:23:25;0.00;0.00;0.62;0.00;0.00;0.62;3.67;1.30;;;27.50;27.00;;;;;;2265293;61;20365;-71
2022/10/19 07:26:13;0.00;0.00;0.62;0.00;0.00;0.62;3.40;1.47;;;27.50;27.00;;;;;;2266073;61;20381;-70
2022/10/19 07:28:59;0.00;0.00;0.62;0.00;0.00;0.62;2.50;1.10;;;27.50;27.00;;;;;;2265981;61;20425;-74
2022/10/19 07:31:44;0.00;0.00;0.62;0.00;0.00;0.62;2.27;1.50;;;27.50;27.00;;;;;;2265549;61;20388;-70
2022/10/19 07:34:28;0.00;0.00;0.62;0.00;0.00;0.62;2.20;1.30;;;27.50;27.00;;;;;;2265748;61;20576;-69
2022/10/19 07:37:14;0.00;0.00;0.62;0.00;0.00;0.62;3.10;1.70;;;27.50;27.00;;;;;;2265567;61;20384;-71
2022/10/19 07:39:59;0.00;0.00;0.62;0.00;0.00;0.62;1.70;1.07;;;27.50;27.00;;;;;;2265495;61;20372;-65
2022/10/19 07:42:44;0.00;0.00;0.62;0.00;0.00;0.62;2.67;1.30;;;27.50;27.00;;;;;;2265788;61;20647;-64
2022/10/19 07:45:28;0.00;0.00;0.62;0.00;0.00;0.62;3.27;1.60;;;27.50;27.00;;;;;;2265637;61;20626;-66
2022/10/19 07:48:13;0.00;0.00;0.62;0.00;0.00;0.62;2.00;1.40;;;27.50;26.90;;;;;;2265818;61;20361;-65
2022/10/19 07:51:00;0.00;0.00;0.62;0.00;0.00;0.62;3.13;1.70;;;27.50;26.90;;;;;;2265809;61;20427;-65
2022/10/19 07:53:47;0.00;0.00;0.62;0.00;0.00;0.62;2.00;1.30;;;27.50;26.90;;;;;;2265601;61;20342;-70
2022/10/19 07:56:32;0.00;0.00;0.62;0.00;0.00;0.62;3.77;1.40;;;27.50;26.90;;;;;;2265503;61;20395;-69
2022/10/19 07:59:17;0.00;0.00;0.62;0.00;0.00;0.62;2.90;1.30;;;27.50;26.80;;;;;;2265106;61;20356;-70
2022/10/19 08:02:03;0.00;0.00;0.62;0.00;0.00;0.62;3.47;1.80;;;27.50;26.80;;;;;;2265540;61;20357;-64
2022/10/19 08:04:48;0.00;0.00;0.62;0.00;0.00;0.62;2.73;1.40;;;27.50;27.30;;;;;;2265706;61;20647;-66
2022/10/19 08:07:33;0.00;0.00;0.62;0.00;0.00;0.62;3.83;1.83;;;27.50;26.80;;;;;;2265544;61;20567;-69
2022/10/19 08:10:19;0.00;0.00;0.62;0.00;0.00;0.62;2.60;1.80;;;27.50;26.80;;;;;;2265863;61;20369;-64
2022/10/19 08:13:04;0.00;0.00;0.62;0.00;0.00;0.62;2.77;1.77;;;27.50;26.70;;;;;;2265964;61;20369;-66
2022/10/19 08:15:48;0.00;0.00;0.62;0.00;0.00;0.62;2.03;1.33;;;27.50;26.70;;;;;;2265293;61;20369;-69
2022/10/19 08:18:34;0.00;0.00;0.62;0.00;0.00;0.62;2.67;1.20;;;27.50;27.20;;;;;;2265772;61;20380;-69
2022/10/19 08:21:20;0.00;0.00;0.62;0.00;0.00;0.62;2.30;1.50;;;27.50;26.60;;;;;;2265734;61;20474;-68
2022/10/19 08:24:06;0.00;0.00;0.62;0.00;0.00;0.62;2.87;1.63;;;27.50;26.70;;;;;;2265490;61;20377;-70
2022/10/19 08:26:53;0.00;0.00;0.62;0.00;0.00;0.62;2.60;1.60;;;27.50;26.60;;;;;;2265623;61;20403;-66
2022/10/19 08:29:38;0.00;0.00;0.62;0.00;0.00;0.62;2.33;1.00;;;27.50;26.70;;;;;;2265701;61;20646;-65
2022/10/19 08:32:23;0.00;0.00;0.62;0.00;0.00;0.62;2.90;1.30;;;27.40;26.50;;;;;;2265989;61;20388;-65
2022/10/19 08:35:08;0.00;0.00;0.62;0.00;0.00;0.62;2.30;1.30;;;27.50;26.50;;;;;;2265306;61;20396;-64
2022/10/19 08:37:53;0.00;0.00;0.62;0.00;0.00;0.62;3.30;1.43;;;27.40;26.40;;;;;;2265186;61;20384;-70
2022/10/19 08:40:38;0.00;0.00;0.62;0.00;0.00;0.62;2.67;1.00;;;27.40;26.40;;;;;;2265661;61;20381;-68
2022/10/19 08:43:29;0.00;0.00;0.62;0.00;0.00;0.62;2.87;1.37;;;27.40;26.90;;;;;;2265847;61;20732;-67
2022/10/19 08:46:23;0.00;0.00;0.62;0.00;0.00;0.62;4.07;1.73;;;27.40;26.40;;;;;;2265499;61;20434;-64
2022/10/19 08:49:11;0.00;0.00;0.62;0.00;0.00;0.62;2.90;1.47;;;27.40;26.30;;;;;;2265298;61;20357;-74
2022/10/19 08:52:00;0.00;0.00;0.62;0.00;0.00;0.62;2.23;1.20;;;27.40;26.30;;;;;;2264809;61;20673;-72
2022/10/19 08:54:50;0.00;0.00;0.62;0.00;0.00;0.62;2.97;1.30;;;27.50;26.30;;;;;;2265080;61;20416;-66
2022/10/19 08:57:44;0.00;0.00;0.62;0.00;0.00;0.62;2.30;1.20;;;27.40;26.30;;;;;;2368459;53;20384;-66
2022/10/19 09:00:40;0.00;0.00;0.62;0.00;0.00;0.62;2.77;1.23;;;27.40;26.40;;;;;;2264983;61;20646;-69
2022/10/19 09:03:32;0.00;0.00;0.62;0.00;0.00;0.62;2.13;1.37;;;27.40;26.40;;;;;;2265552;61;20365;-70
2022/10/19 09:06:23;0.00;0.00;0.62;0.00;0.00;0.62;1.87;0.90;;;27.40;26.50;;;;;;2264854;61;20388;-70
2022/10/19 09:09:11;0.00;0.00;0.62;0.00;0.00;0.62;4.10;1.63;;;27.40;26.50;;;;;;2613880;45;20426;-67
2022/10/19 09:12:04;0.00;0.00;0.62;0.00;0.00;0.62;3.13;1.30;;;27.40;26.60;;;;;;2266117;61;20479;-67
2022/10/19 09:14:56;0.00;0.00;0.62;0.00;0.00;0.62;3.30;1.77;;;27.40;26.60;;;;;;2264470;61;20388;-68
2022/10/19 09:17:42;0.00;0.00;0.62;0.00;0.00;0.62;1.47;0.80;;;27.40;26.60;;;;;;2268306;58;20373;-68
2022/10/19 09:20:36;0.00;0.00;0.62;0.00;0.00;0.62;1.90;1.20;;;27.50;26.70;;;;;;2265610;61;20388;-67
2022/10/19 09:23:27;0.00;0.00;0.62;0.00;0.00;0.62;2.17;1.20;;;27.50;26.80;;;;;;2265348;61;20361;-71
2022/10/19 09:26:17;0.00;0.00;0.62;0.00;0.00;0.62;2.73;1.10;;;27.50;26.80;;;;;;2284322;58;20717;-69
2022/10/19 09:29:10;0.00;0.00;0.62;0.00;0.00;0.62;3.00;1.47;;;27.50;26.80;;;;;;2265252;61;20376;-70
2022/10/19 09:31:58;0.00;0.00;0.62;0.00;0.00;0.62;2.27;1.00;;;27.50;26.90;;;;;;2265114;61;20573;-71
2022/10/19 09:34:48;0.00;0.00;0.62;0.00;0.00;0.62;1.87;1.10;;;27.50;26.90;;;;;;2265161;61;20377;-73
2022/10/19 09:37:41;0.00;0.00;0.62;0.00;0.00;0.62;1.87;0.97;;;27.50;26.90;;;;;;2264211;61;20368;-68
2022/10/19 09:40:28;0.00;0.00;0.62;0.00;0.00;0.62;2.13;0.83;;;27.50;26.90;;;;;;2265377;61;20507;-69
2022/10/19 09:43:20;0.00;0.00;0.62;0.00;0.00;0.62;1.90;0.90;;;27.60;27.00;;;;;;2264608;61;20396;-71
2022/10/19 09:46:14;0.00;0.00;0.62;0.00;0.00;0.62;1.83;1.03;;;27.60;27.00;;;;;;2264913;61;20377;-72
2022/10/19 09:49:02;0.00;0.00;0.62;0.00;0.00;0.62;2.23;1.10;;;27.60;27.00;;;;;;2265032;61;20713;-65
2022/10/19 09:51:51;0.00;0.00;0.62;0.00;0.00;0.62;1.90;1.10;;;27.60;27.00;;;;;;2264721;61;20353;-70
2022/10/19 09:54:38;0.00;0.00;0.62;0.00;0.00;0.62;1.83;0.90;;;27.60;27.00;;;;;;2265264;61;20384;-68
2022/10/19 09:57:23;0.00;0.00;0.62;0.00;0.00;0.62;1.83;1.00;;;27.70;27.10;;;;;;2265312;61;20353;-68
2022/10/19 10:00:17;0.00;0.00;0.62;0.00;0.00;0.62;1.80;0.90;;;27.70;27.10;;;;;;2265033;61;20427;-69
2022/10/19 10:03:04;0.00;0.00;0.62;0.00;0.00;0.62;1.50;0.90;;;27.70;27.10;;;;;;2265428;61;20365;-70
2022/10/19 10:05:50;0.00;0.00;0.62;0.00;0.00;0.62;1.40;0.87;;;27.70;27.10;;;;;;2265415;61;20380;-62
2022/10/19 10:08:39;0.00;0.00;0.62;0.00;0.00;0.62;2.43;1.40;;;27.70;27.10;;;;;;2266170;61;20449;-64
2022/10/19 10:11:26;0.00;0.00;0.62;0.00;0.00;0.62;1.63;0.90;;;27.70;27.10;;;;;;2266307;61;20365;-66
2022/10/19 10:14:18;0.00;0.00;0.62;0.00;0.00;0.62;1.70;1.03;;;27.70;27.10;;;;;;2265717;61;20448;-65
2022/10/19 10:17:11;0.00;0.00;0.62;0.00;0.00;0.62;2.27;1.10;;;27.80;27.10;;;;;;2266163;61;20433;-69
2022/10/19 10:20:22;0.00;0.00;0.62;0.00;0.00;0.62;2.00;1.20;;;27.80;27.10;;;;;;2265524;61;20642;-70
2022/10/19 10:23:22;0.00;0.00;0.62;0.00;0.00;0.62;2.90;1.30;;;27.80;27.10;;;;;;2265627;61;20357;-68
2022/10/19 10:26:18;0.00;0.00;0.62;0.00;0.00;0.62;1.70;0.90;;;27.80;27.10;;;;;;2265962;61;20384;-69
2022/10/19 10:29:18;0.00;0.00;0.62;0.00;0.00;0.62;2.37;1.47;;;27.80;27.10;;;;;;2265449;61;20365;-65
2022/10/19 10:32:07;0.00;0.00;0.62;0.00;0.00;0.62;2.50;1.30;;;27.80;27.10;;;;;;2265965;61;20341;-66
2022/10/19 10:35:00;0.00;0.00;0.62;0.00;0.00;0.62;1.97;1.27;;;27.90;27.20;;;;;;2265571;61;20439;-67
2022/10/19 10:37:47;0.00;0.00;0.62;0.00;0.00;0.62;1.97;1.20;;;27.90;27.20;;;;;;2265913;61;20593;-70
2022/10/19 10:40:32;0.00;0.00;0.62;0.00;0.00;0.62;2.20;1.30;;;27.90;27.10;;;;;;2265898;61;20745;-66
2022/10/19 10:43:23;0.00;0.00;0.62;0.00;0.00;0.62;1.73;0.90;;;27.90;27.10;;;;;;2265108;61;20364;-69
2022/10/19 10:46:18;0.00;0.00;0.62;0.00;0.00;0.62;2.00;0.97;;;27.90;27.10;;;;;;2265929;61;20345;-68
2022/10/19 10:49:05;0.00;0.00;0.62;0.00;0.00;0.62;1.83;1.20;;;28.00;27.20;;;;;;2266033;61;20420;-66
2022/10/19 10:51:54;0.00;0.00;0.62;0.00;0.00;0.62;1.90;1.00;;;28.00;27.20;;;;;;2265748;61;20349;-74
2022/10/19 10:54:39;0.00;0.00;0.62;0.00;0.00;0.62;2.27;0.93;;;28.00;27.20;;;;;;2265341;61;20384;-69
2022/10/19 10:57:27;0.00;0.00;0.62;0.00;0.00;0.62;1.80;1.30;;;28.00;27.20;;;;;;2265519;61;20360;-70
2022/10/19 11:00:17;0.00;0.00;0.62;0.00;0.00;0.62;1.77;0.93;;;28.00;27.20;;;;;;2265733;61;20429;-70
2022/10/19 11:03:09;0.00;0.00;0.62;0.00;0.00;0.62;2.13;1.20;;;28.00;27.20;;;;;;2265510;61;20415;-68